createdAt,value
2022-08-07T00:01:44.354Z,1.50
2022-08-07T00:04:11.322Z,1.90
2022-08-07T00:06:51.408Z,2.20
2022-08-07T00:09:21.212Z,1.92
2022-08-07T00:11:55.787Z,1.88
2022-08-07T00:14:30.077Z,1.95
2022-08-07T00:17:02.848Z,1.50
2022-08-07T00:20:00.689Z,1.70
2022-08-07T00:22:24.408Z,1.60
2022-08-07T00:25:15.726Z,1.55
2022-08-07T00:27:52.669Z,1.65
2022-08-07T00:30:27.979Z,1.08
2022-08-07T00:32:59.637Z,1.45
2022-08-07T00:35:29.699Z,1.50
2022-08-07T00:37:58.789Z,1.80
2022-08-07T00:40:36.605Z,1.80
2022-08-07T00:43:59.753Z,1.88
2022-08-07T00:45:58.606Z,2.10
2022-08-07T00:48:31.033Z,2.00
2022-08-07T00:51:00.545Z,1.77
2022-08-07T00:53:38.381Z,1.90
2022-08-07T00:56:14.027Z,2.08
2022-08-07T01:01:13.987Z,1.55
2022-08-07T01:03:56.121Z,1.80
2022-08-07T01:06:30.377Z,1.83
2022-08-07T01:09:01.173Z,1.65
2022-08-07T01:12:09.880Z,2.17
2022-08-07T01:14:28.141Z,1.95
2022-08-07T01:16:56.894Z,2.10
2022-08-07T01:19:26.699Z,1.63
2022-08-07T01:21:55.583Z,2.40
2022-08-07T01:24:23.806Z,1.87
2022-08-07T01:26:54.515Z,1.98
2022-08-07T01:29:27.780Z,1.63
2022-08-07T01:31:59.370Z,1.65
2022-08-07T01:34:31.061Z,1.70
2022-08-07T01:36:58.567Z,1.73
2022-08-07T01:39:40.735Z,1.77
2022-08-07T01:42:38.329Z,1.70
2022-08-07T01:45:04.248Z,2.15
2022-08-07T01:48:20.998Z,1.90
2022-08-07T01:50:22.723Z,1.90
2022-08-07T01:52:58.488Z,1.63
2022-08-07T01:55:34.454Z,2.88
2022-08-07T01:58:27.335Z,1.70
2022-08-07T02:01:09.483Z,2.17
2022-08-07T02:03:50.241Z,1.75
2022-08-07T02:06:30.876Z,1.85
2022-08-07T02:09:04.268Z,2.35
2022-08-07T02:12:04.032Z,1.48
2022-08-07T02:14:35.817Z,1.80
2022-08-07T02:17:03.662Z,1.52
2022-08-07T02:20:04.472Z,1.30
2022-08-07T02:22:25.887Z,1.83
2022-08-07T02:24:55.948Z,1.40
2022-08-07T02:27:25.210Z,1.70
2022-08-07T02:29:55.122Z,2.40
2022-08-07T02:34:52.780Z,2.35
2022-08-07T02:37:20.840Z,1.70
2022-08-07T02:40:02.469Z,1.83
2022-08-07T02:42:37.541Z,1.85
2022-08-07T02:45:58.570Z,2.13
2022-08-07T02:47:56.825Z,2.22
2022-08-07T02:50:31.742Z,2.40
2022-08-07T02:53:11.789Z,2.30
2022-08-07T02:56:02.175Z,2.95
2022-08-07T02:58:33.781Z,2.10
2022-08-07T03:01:03.287Z,2.00
2022-08-07T03:03:49.459Z,1.67
2022-08-07T03:06:25.833Z,1.38
2022-08-07T03:09:02.446Z,1.33
2022-08-07T03:11:32.685Z,1.40
2022-08-07T03:14:01.618Z,1.23
2022-08-07T03:16:30.391Z,1.30
2022-08-07T03:18:58.774Z,1.00
2022-08-07T03:21:26.792Z,1.38
2022-08-07T03:24:19.872Z,1.10
2022-08-07T03:26:51.172Z,1.20
2022-08-07T03:29:27.599Z,1.40
2022-08-07T03:31:56.209Z,1.33
2022-08-07T03:34:25.206Z,1.27
2022-08-07T03:36:55.196Z,1.23
2022-08-07T03:39:45.903Z,1.25
2022-08-07T03:42:14.499Z,1.40
2022-08-07T03:44:42.022Z,1.33
2022-08-07T03:47:11.201Z,1.42
2022-08-07T03:49:41.058Z,2.00
2022-08-07T03:52:22.953Z,1.55
2022-08-07T03:54:57.056Z,1.55
2022-08-07T03:58:32.940Z,1.85
2022-08-07T04:00:14.791Z,2.22
2022-08-07T04:02:47.217Z,2.40
2022-08-07T04:05:14.702Z,2.10
2022-08-07T04:07:48.901Z,2.05
2022-08-07T04:10:19.089Z,1.80
2022-08-07T04:12:48.041Z,2.30
2022-08-07T04:15:16.167Z,1.70
2022-08-07T04:18:31.846Z,1.98
2022-08-07T04:20:32.365Z,2.08
2022-08-07T04:23:06.282Z,1.70
2022-08-07T04:25:39.135Z,1.20
2022-08-07T04:28:13.424Z,1.67
2022-08-07T04:30:55.654Z,1.20
2022-08-07T04:33:27.798Z,1.83
2022-08-07T04:35:55.075Z,1.88
2022-08-07T04:38:22.856Z,1.38
2022-08-07T04:40:51.705Z,1.50
2022-08-07T04:44:12.419Z,1.23
2022-08-07T04:46:34.755Z,1.95
2022-08-07T04:49:17.971Z,1.40
2022-08-07T04:52:00.675Z,1.45
2022-08-07T04:54:40.272Z,1.73
2022-08-07T04:58:10.696Z,1.60
2022-08-07T05:00:30.234Z,1.60
2022-08-07T05:03:59.876Z,1.60
2022-08-07T05:06:28.215Z,1.23
2022-08-07T05:09:46.250Z,1.58
2022-08-07T05:12:26.975Z,1.40
2022-08-07T05:15:04.106Z,1.65
2022-08-07T05:17:52.068Z,1.65
2022-08-07T05:20:27.047Z,1.30
2022-08-07T05:22:59.740Z,1.20
2022-08-07T05:25:36.786Z,1.20
2022-08-07T05:28:22.638Z,1.85
2022-08-07T05:30:52.949Z,1.30
2022-08-07T05:33:23.526Z,1.00
2022-08-07T05:35:52.987Z,1.33
2022-08-07T05:39:00.561Z,1.08
2022-08-07T05:41:16.938Z,1.83
2022-08-07T05:44:08.060Z,1.20
2022-08-07T05:46:38.388Z,0.85
2022-08-07T05:49:11.986Z,1.33
2022-08-07T05:51:42.301Z,1.30
2022-08-07T05:56:57.956Z,1.17
2022-08-07T05:59:27.570Z,1.10
2022-08-07T06:01:57.361Z,1.23
2022-08-07T06:04:26.365Z,1.00
2022-08-07T06:07:03.833Z,1.40
2022-08-07T06:09:44.799Z,1.83
2022-08-07T06:12:12.490Z,1.08
2022-08-07T06:14:49.616Z,1.52
2022-08-07T06:17:18.031Z,1.20
2022-08-07T06:19:49.981Z,1.20
2022-08-07T06:22:38.859Z,1.50
2022-08-07T06:25:10.286Z,0.93
2022-08-07T06:27:59.990Z,1.10
2022-08-07T06:30:37.525Z,0.90
2022-08-07T06:33:15.676Z,1.30
2022-08-07T06:36:06.919Z,1.20
2022-08-07T06:38:35.014Z,1.30
2022-08-07T06:41:09.728Z,1.20
2022-08-07T06:43:46.270Z,0.75
2022-08-07T06:46:31.471Z,1.10
2022-08-07T06:49:04.914Z,0.98
2022-08-07T06:51:43.416Z,0.98
2022-08-07T06:55:34.391Z,0.70
2022-08-07T06:57:09.658Z,1.05
2022-08-07T07:00:12.088Z,1.30
2022-08-07T07:02:54.613Z,1.00
2022-08-07T07:06:02.680Z,1.13
2022-08-07T07:08:12.701Z,0.90
2022-08-07T07:10:54.846Z,1.13
2022-08-07T07:13:56.709Z,0.95
2022-08-07T07:16:30.173Z,1.10
2022-08-07T07:19:11.153Z,0.80
2022-08-07T07:22:04.920Z,0.90
2022-08-07T07:24:42.805Z,1.00
2022-08-07T07:27:13.568Z,1.35
2022-08-07T07:30:07.410Z,1.00
2022-08-07T07:32:40.560Z,2.75
2022-08-07T07:35:12.835Z,1.40
2022-08-07T07:37:49.720Z,0.90
2022-08-07T07:40:27.014Z,0.75
2022-08-07T07:42:57.904Z,0.80
2022-08-07T07:46:40.066Z,0.80
2022-08-07T07:48:36.059Z,2.00
2022-08-07T07:51:07.894Z,0.85
2022-08-07T07:53:51.496Z,0.63
2022-08-07T07:56:30.491Z,0.85
2022-08-07T07:59:01.893Z,0.70
2022-08-07T08:02:03.464Z,0.90
2022-08-07T08:04:19.642Z,1.10
2022-08-07T08:06:53.455Z,0.90
2022-08-07T08:09:24.009Z,0.70
2022-08-07T08:12:01.763Z,0.70
2022-08-07T08:14:34.331Z,0.70
2022-08-07T08:17:55.298Z,0.50
2022-08-07T08:20:18.750Z,0.57
2022-08-07T08:23:02.468Z,0.90
2022-08-07T08:25:54.498Z,0.90
2022-08-07T08:28:37.779Z,0.52
2022-08-07T08:31:14.668Z,0.60
2022-08-07T08:33:49.750Z,1.17
2022-08-07T08:36:29.581Z,0.98
2022-08-07T08:39:02.190Z,0.70
2022-08-07T08:41:57.705Z,0.70
2022-08-07T08:44:48.630Z,0.60
2022-08-07T08:47:52.957Z,0.55
2022-08-07T08:50:34.984Z,1.25
2022-08-07T08:53:32.484Z,0.60
2022-08-07T08:56:22.862Z,0.55
2022-08-07T08:59:02.325Z,0.45
2022-08-07T09:02:08.950Z,0.55
2022-08-07T09:04:55.167Z,0.75
2022-08-07T09:07:58.014Z,1.10
2022-08-07T09:10:53.259Z,0.57
2022-08-07T09:14:00.100Z,0.60
2022-08-07T09:16:34.441Z,0.65
2022-08-07T09:19:50.593Z,0.52
2022-08-07T09:24:29.233Z,0.63
2022-08-07T09:25:26.053Z,1.45
2022-08-07T09:30:06.238Z,0.52
2022-08-07T09:31:07.462Z,0.50
2022-08-07T09:34:07.924Z,0.60
2022-08-07T09:36:43.152Z,0.60
2022-08-07T09:39:59.484Z,0.40
2022-08-07T09:42:56.067Z,0.60
2022-08-07T09:47:26.104Z,0.45
2022-08-07T09:50:00.453Z,1.40
2022-08-07T09:52:34.776Z,0.43
2022-08-07T09:55:04.951Z,0.73
2022-08-07T09:58:02.469Z,0.50
2022-08-07T10:00:43.488Z,0.70
2022-08-07T10:04:06.763Z,0.70
2022-08-07T10:06:39.746Z,1.05
2022-08-07T10:09:23.615Z,0.60
2022-08-07T10:12:18.094Z,0.60
2022-08-07T10:14:55.416Z,0.60
2022-08-07T10:18:09.914Z,0.60
2022-08-07T10:20:42.209Z,0.70
2022-08-07T10:24:05.994Z,0.43
2022-08-07T10:27:10.503Z,0.50
2022-08-07T10:32:52.440Z,0.70
2022-08-07T10:35:56.561Z,0.55
2022-08-07T10:38:49.250Z,0.80
2022-08-07T10:41:51.862Z,1.15
2022-08-07T10:44:38.466Z,0.70
2022-08-07T10:47:18.975Z,0.40
2022-08-07T10:49:53.981Z,0.60
2022-08-07T10:52:51.221Z,0.60
2022-08-07T10:55:37.300Z,0.47
2022-08-07T10:58:14.203Z,0.47
2022-08-07T11:01:15.143Z,0.90
2022-08-07T11:04:23.054Z,0.60
2022-08-07T11:07:58.852Z,0.68
2022-08-07T11:10:21.538Z,0.43
2022-08-07T11:13:04.729Z,0.55
2022-08-07T11:15:39.055Z,2.17
2022-08-07T11:18:42.902Z,0.60
2022-08-07T11:21:43.812Z,0.50
2022-08-07T11:24:17.888Z,0.60
2022-08-07T11:27:07.405Z,0.70
2022-08-07T11:30:17.544Z,0.70
2022-08-07T11:32:58.633Z,0.50
2022-08-07T11:35:32.097Z,0.60
2022-08-07T11:38:17.383Z,0.50
2022-08-07T11:40:50.164Z,0.73
2022-08-07T11:43:41.194Z,0.70
2022-08-07T11:46:38.078Z,0.70
2022-08-07T11:50:18.678Z,0.57
2022-08-07T11:52:37.726Z,0.60
2022-08-07T11:56:25.212Z,0.80
2022-08-07T11:59:05.597Z,1.30
2022-08-07T12:02:30.995Z,0.63
2022-08-07T12:05:47.490Z,0.52
2022-08-07T12:08:42.529Z,0.75
2022-08-07T12:11:21.088Z,0.75
2022-08-07T12:14:08.827Z,0.57
2022-08-07T12:16:40.614Z,0.80
2022-08-07T12:19:21.798Z,0.80
2022-08-07T12:21:55.543Z,0.70
2022-08-07T12:25:08.459Z,0.95
2022-08-07T12:28:09.741Z,0.60
2022-08-07T12:30:27.353Z,0.70
2022-08-07T12:33:09.361Z,0.80
2022-08-07T12:35:57.680Z,0.50
2022-08-07T12:38:36.966Z,0.60
2022-08-07T12:41:12.800Z,0.57
2022-08-07T12:44:02.791Z,0.70
2022-08-07T12:46:50.950Z,0.60
2022-08-07T12:49:48.788Z,1.25
2022-08-07T12:52:34.179Z,0.60
2022-08-07T12:55:05.545Z,0.85
2022-08-07T12:58:02.382Z,0.80
2022-08-07T13:00:56.825Z,0.57
2022-08-07T13:03:53.519Z,0.98
2022-08-07T13:06:21.951Z,0.65
2022-08-07T13:10:17.395Z,0.85
2022-08-07T13:12:13.217Z,0.80
2022-08-07T13:14:50.921Z,0.60
2022-08-07T13:17:39.815Z,0.80
2022-08-07T13:20:27.725Z,0.60
2022-08-07T13:23:59.981Z,0.70
2022-08-07T13:28:31.742Z,0.68
2022-08-07T13:31:06.543Z,0.93
2022-08-07T13:34:33.385Z,0.68
2022-08-07T13:36:44.611Z,0.60
2022-08-07T13:39:28.522Z,0.85
2022-08-07T13:42:10.731Z,1.58
2022-08-07T13:44:39.338Z,0.70
2022-08-07T13:47:09.139Z,0.88
2022-08-07T13:50:36.631Z,0.70
2022-08-07T13:52:36.188Z,0.77
2022-08-07T13:55:11.006Z,0.80
2022-08-07T13:57:51.609Z,1.23
2022-08-07T14:00:50.511Z,0.70
2022-08-07T14:03:29.542Z,0.82
2022-08-07T14:06:12.149Z,0.70
2022-08-07T14:08:48.631Z,0.63
2022-08-07T14:11:22.649Z,0.60
2022-08-07T14:13:55.342Z,1.10
2022-08-07T14:16:27.312Z,0.70
2022-08-07T14:19:02.671Z,0.63
2022-08-07T14:22:41.137Z,0.60
2022-08-07T14:24:28.658Z,0.80
2022-08-07T14:28:09.897Z,0.80
2022-08-07T14:30:06.548Z,0.70
2022-08-07T14:32:45.773Z,0.70
2022-08-07T14:35:45.665Z,0.95
2022-08-07T14:41:17.583Z,0.50
2022-08-07T14:44:11.693Z,1.20
2022-08-07T14:46:51.717Z,0.80
2022-08-07T14:49:56.565Z,1.30
2022-08-07T14:52:27.590Z,1.40
2022-08-07T14:54:55.496Z,0.88
2022-08-07T15:00:29.821Z,0.63
2022-08-07T15:03:16.566Z,0.80
2022-08-07T15:05:54.709Z,1.05
2022-08-07T15:08:54.666Z,0.80
2022-08-07T15:11:53.434Z,0.80
2022-08-07T15:14:25.274Z,0.80
2022-08-07T15:17:00.807Z,0.80
2022-08-07T15:22:29.464Z,0.80
2022-08-07T15:25:18.383Z,0.85
2022-08-07T15:28:33.125Z,0.77
2022-08-07T15:31:05.328Z,1.00
2022-08-07T15:33:33.788Z,0.80
2022-08-07T15:36:07.854Z,0.70
2022-08-07T15:38:58.612Z,0.50
2022-08-07T15:42:44.621Z,1.00
2022-08-07T15:44:23.794Z,0.77
2022-08-07T15:52:51.587Z,0.65
2022-08-07T15:55:20.799Z,0.70
2022-08-07T15:58:00.320Z,0.75
2022-08-07T16:00:38.021Z,1.08
2022-08-07T16:06:04.395Z,1.27
2022-08-07T16:08:38.611Z,0.73
2022-08-07T16:11:26.237Z,0.63
2022-08-07T16:14:02.840Z,0.77
2022-08-07T16:16:49.703Z,0.57
2022-08-07T16:19:41.825Z,0.98
2022-08-07T16:22:54.280Z,0.73
2022-08-07T16:25:54.251Z,1.38
2022-08-07T16:30:06.124Z,0.90
2022-08-07T16:31:51.654Z,0.77
2022-08-07T16:34:38.772Z,0.90
2022-08-07T16:38:04.778Z,0.60
2022-08-07T16:41:02.384Z,0.50
2022-08-07T16:44:40.249Z,1.00
2022-08-07T16:47:52.911Z,0.70
2022-08-07T16:50:52.606Z,0.70
2022-08-07T16:53:57.197Z,0.80
2022-08-07T16:56:30.822Z,0.77
2022-08-07T16:59:17.949Z,0.63
2022-08-07T17:01:53.557Z,0.70
2022-08-07T17:04:58.711Z,0.80
2022-08-07T17:07:54.994Z,0.90
2022-08-07T17:10:35.570Z,0.90
2022-08-07T17:13:22.765Z,1.33
2022-08-07T17:16:12.326Z,0.80
2022-08-07T17:21:51.175Z,0.98
2022-08-07T17:24:38.070Z,0.70
2022-08-07T17:27:29.741Z,0.70
2022-08-07T17:30:15.158Z,0.70
2022-08-07T17:33:05.629Z,0.90
2022-08-07T17:35:56.056Z,1.00
2022-08-07T17:38:34.091Z,0.98
2022-08-07T17:41:12.422Z,1.10
2022-08-07T17:44:33.758Z,0.80
2022-08-07T17:47:16.970Z,1.10
2022-08-07T17:50:06.275Z,0.80
2022-08-07T17:52:41.832Z,3.38
2022-08-07T17:55:14.132Z,1.10
2022-08-07T17:57:58.910Z,1.52
2022-08-07T18:00:48.521Z,1.10
2022-08-07T18:04:04.518Z,1.67
2022-08-07T18:06:37.046Z,1.48
2022-08-07T18:09:08.605Z,10.07
2022-08-07T18:12:16.133Z,1.85
2022-08-07T18:14:46.471Z,1.70
2022-08-07T18:18:33.133Z,2.72
2022-08-07T18:21:12.803Z,2.53
2022-08-07T18:23:43.194Z,2.15
2022-08-07T18:26:18.489Z,2.38
2022-08-07T18:28:58.693Z,2.65
2022-08-07T18:32:01.092Z,2.83
2022-08-07T18:35:01.080Z,2.40
2022-08-07T18:38:58.480Z,2.37
2022-08-07T18:41:10.292Z,1.95
2022-08-07T18:44:09.644Z,2.20
2022-08-07T18:46:43.262Z,1.85
2022-08-07T18:50:31.092Z,1.65
2022-08-07T18:52:54.290Z,1.65
2022-08-07T18:55:55.894Z,1.67
2022-08-07T18:59:03.297Z,1.80
2022-08-07T19:02:32.582Z,1.45
2022-08-07T19:05:15.955Z,1.45
2022-08-07T19:08:05.203Z,1.38
2022-08-07T19:10:51.919Z,1.10
2022-08-07T19:13:50.318Z,1.48
2022-08-07T19:17:07.685Z,1.20
2022-08-07T19:19:38.346Z,1.20
2022-08-07T19:22:32.025Z,1.50
2022-08-07T19:25:06.538Z,1.58
2022-08-07T19:28:58.188Z,1.30
2022-08-07T19:30:58.884Z,1.70
2022-08-07T19:33:33.273Z,2.03
2022-08-07T19:36:08.910Z,2.25
2022-08-07T19:38:53.144Z,2.00
2022-08-07T19:41:39.176Z,2.30
2022-08-07T19:44:21.213Z,1.90
2022-08-07T19:46:55.577Z,2.20
2022-08-07T19:49:58.323Z,2.60
2022-08-07T19:52:18.850Z,2.33
2022-08-07T19:54:56.125Z,2.20
2022-08-07T19:58:02.348Z,2.47
2022-08-07T20:00:30.743Z,3.00
2022-08-07T20:03:32.744Z,2.80
2022-08-07T20:06:01.355Z,2.40
2022-08-07T20:08:34.731Z,2.83
2022-08-07T20:11:10.284Z,2.60
2022-08-07T20:13:45.552Z,2.88
2022-08-07T20:16:35.547Z,2.72
2022-08-07T20:19:10.535Z,2.85
2022-08-07T20:21:42.119Z,2.80
2022-08-07T20:24:15.695Z,2.58
2022-08-07T20:26:52.346Z,2.63
2022-08-07T20:29:49.494Z,2.90
2022-08-07T20:32:23.121Z,2.28
2022-08-07T20:34:57.067Z,2.50
2022-08-07T20:37:30.973Z,3.15
2022-08-07T20:40:32.228Z,2.60
2022-08-07T20:42:59.034Z,2.20
2022-08-07T20:45:33.678Z,2.50
2022-08-07T20:48:28.834Z,2.42
2022-08-07T20:51:09.851Z,2.20
2022-08-07T20:54:03.881Z,3.45
2022-08-07T20:56:29.055Z,2.27
2022-08-07T20:59:00.903Z,1.95
2022-08-07T21:01:45.959Z,2.13
2022-08-07T21:06:53.614Z,2.15
2022-08-07T21:09:24.551Z,2.47
2022-08-07T21:11:57.689Z,2.08
2022-08-07T21:14:34.584Z,2.40
2022-08-07T21:18:09.036Z,1.83
2022-08-07T21:20:06.293Z,2.20
2022-08-07T21:22:51.384Z,2.42
2022-08-07T21:25:39.107Z,2.50
2022-08-07T21:28:48.262Z,2.15
2022-08-07T21:31:31.380Z,2.08
2022-08-07T21:34:18.985Z,1.95
2022-08-07T21:36:56.379Z,1.80
2022-08-07T21:39:46.507Z,1.92
2022-08-07T21:42:54.173Z,3.85
2022-08-07T21:46:07.551Z,2.40
2022-08-07T21:48:57.049Z,1.60
2022-08-07T21:51:54.815Z,1.58
2022-08-07T21:54:34.532Z,1.23
2022-08-07T21:57:39.495Z,1.73
2022-08-07T22:00:23.160Z,1.38
2022-08-07T22:03:10.815Z,1.60
2022-08-07T22:05:51.595Z,1.88
2022-08-07T22:08:26.497Z,1.35
2022-08-07T22:10:59.977Z,1.52
2022-08-07T22:13:51.363Z,1.42
2022-08-07T22:16:45.430Z,1.50
2022-08-07T22:19:23.751Z,1.20
2022-08-07T22:22:21.235Z,1.30
2022-08-07T22:25:36.198Z,1.38
2022-08-07T22:28:31.254Z,1.40
2022-08-07T22:31:04.934Z,1.40
2022-08-07T22:33:56.678Z,1.30
2022-08-07T22:36:58.049Z,1.38
2022-08-07T22:39:53.058Z,1.10
2022-08-07T22:42:29.496Z,1.75
2022-08-07T22:45:02.473Z,1.88
2022-08-07T22:47:52.479Z,1.30
2022-08-07T22:50:48.428Z,1.58
2022-08-07T22:54:05.207Z,1.25
2022-08-07T22:56:38.254Z,1.23
2022-08-07T22:59:22.932Z,1.42
2022-08-07T23:02:04.938Z,1.33
2022-08-07T23:04:56.801Z,1.40
2022-08-07T23:08:23.896Z,1.33
2022-08-07T23:11:17.386Z,1.30
2022-08-07T23:14:08.993Z,1.50
2022-08-07T23:16:54.561Z,1.30
2022-08-07T23:20:10.137Z,1.35
2022-08-07T23:22:59.597Z,1.17
2022-08-07T23:25:53.799Z,1.30
2022-08-07T23:28:38.632Z,1.20
2022-08-07T23:32:50.243Z,1.63
2022-08-07T23:34:39.731Z,1.48
2022-08-07T23:37:19.096Z,1.10
2022-08-07T23:40:02.604Z,1.30
2022-08-07T23:42:53.373Z,1.35
2022-08-07T23:46:01.303Z,1.13
2022-08-07T23:48:35.916Z,1.50
2022-08-07T23:53:00.870Z,1.40
2022-08-07T23:53:57.624Z,1.45
2022-08-07T23:56:53.990Z,1.63
